WetterOnline ( https://www.wetteronline.de )

Wetter aktuell Helgoland

Aktuelles Wetter: Helgoland/Düne (8m)

6-stündlich | Neueste Meldungen
Ortszeit Temperatur Wetter
Sa, 25.06. 20:00 19.0° C leicht bewölkt
Sa, 25.06. 14:00 21.3° C leicht bewölkt
Sa, 25.06. 8:00 17.9° C wolkenlos
Sa, 25.06. 2:00 16.6° C wolkig
Fr, 24.06. 20:00 17.5° C wolkig
Fr, 24.06. 14:00 19.7° C bedeckt
Fr, 24.06. 8:00 19.1° C wolkenlos
Fr, 24.06. 2:00 19.0° C wolkenlos
Ortszeit Temperatur Wetter
So, 26.06. 1:00 18.7° C bedeckt
So, 26.06. 0:50 18.7° C bedeckt
So, 26.06. 0:40 18.7° C bedeckt
So, 26.06. 0:30 18.6° C bedeckt
So, 26.06. 0:20 18.6° C bedeckt
So, 26.06. 0:10 18.6° C bedeckt
So, 26.06. 0:00 18.6° C bewölkt
Sa, 25.06. 23:30 18.3° C wolkig
Sa, 25.06. 23:00 17.9° C wolkig
Sa, 25.06. 22:30 18.1° C bewölkt
Sa, 25.06. 22:00 17.8° C bewölkt
Ortszeit Relative Feuchte Sichtweite
Sa, 25.06. 20:00 87% 7 km
Sa, 25.06. 14:00 80% 11 km
Sa, 25.06. 8:00 89% 29 km
Sa, 25.06. 2:00 98% 9 km
Fr, 24.06. 20:00 90% 23 km
Fr, 24.06. 14:00 77% 19 km
Fr, 24.06. 8:00 78% 30 km
Fr, 24.06. 2:00 87% 40 km
Ortszeit Relative Feuchte Sichtweite
So, 26.06. 1:00 93% 19 km
So, 26.06. 0:50 93% -
So, 26.06. 0:40 94% -
So, 26.06. 0:30 95% 9 km
So, 26.06. 0:20 95% -
So, 26.06. 0:10 94% -
So, 26.06. 0:00 94% 9 km
Sa, 25.06. 23:30 94% 8 km
Sa, 25.06. 23:00 93% 8 km
Sa, 25.06. 22:30 93% 8 km
Sa, 25.06. 22:00 94% 5.0 km
Ortszeit Niederschlagsmenge Niederschlagsart
Sa, 25.06. 20:00 0.0 l/m2 in 12 Std. -
Sa, 25.06. 14:00 0.0 l/m2 in 6 Std. -
Sa, 25.06. 8:00 0.0 l/m2 in 12 Std. -
Sa, 25.06. 2:00 0.0 l/m2 in 6 Std. -
Fr, 24.06. 20:00 1 l/m2 in 12 Std. Regen
Fr, 24.06. 14:00 0.1 l/m2 in 6 Std. Regen
Fr, 24.06. 8:00 0.0 l/m2 in 12 Std. -
Fr, 24.06. 2:00 0.0 l/m2 in 6 Std. -
Ortszeit Niederschlagsmenge Niederschlagsart
So, 26.06. 1:00 0.0 l/m2 in 1 Std. -
So, 26.06. 0:50 keine Meldung -
So, 26.06. 0:40 keine Meldung -
So, 26.06. 0:30 0.0 l/m2 in 1 Std. -
So, 26.06. 0:20 keine Meldung -
So, 26.06. 0:10 keine Meldung -
So, 26.06. 0:00 0.0 l/m2 in 1 Std. -
Sa, 25.06. 23:30 0.0 l/m2 in 1 Std. -
Sa, 25.06. 23:00 0.0 l/m2 in 1 Std. -
Sa, 25.06. 22:30 0.0 l/m2 in 1 Std. -
Sa, 25.06. 22:00 0.0 l/m2 in 1 Std. -
Ortszeit Stärke Spitze Richtung
km/h Bft. km/h Grad Sektor
Sa, 25.06. 20:00 11 2 18 30° NO
Sa, 25.06. 14:00 7 2 25 180° S
Sa, 25.06. 8:00 11 2 22 160° S
Sa, 25.06. 2:00 11 2 14 130° SO
Fr, 24.06. 20:00 7 2 32 310° NW
Fr, 24.06. 14:00 11 2 41 210° SW
Fr, 24.06. 8:00 28 4 43 110° O
Fr, 24.06. 2:00 30 5 37 100° O
Ortszeit Stärke Spitze Richtung
km/h Bft. km/h Grad Sektor
So, 26.06. 1:00 14 3 22 70° O
So, 26.06. 0:50 14 3 - 70° O
So, 26.06. 0:40 15 3 - 70° O
So, 26.06. 0:30 14 3 22 60° NO
So, 26.06. 0:20 14 3 - 60° NO
So, 26.06. 0:10 14 3 - 60° NO
So, 26.06. 0:00 17 3 22 60° NO
Sa, 25.06. 23:30 18 3 22 50° NO
Sa, 25.06. 23:00 13 3 20 40° NO
Sa, 25.06. 22:30 14 3 22 40° NO
Sa, 25.06. 22:00 14 3 18 30° NO
Ortszeit Untergrenze Bedeckung Gattung
total tief tief mittel hoch
Sa, 25.06. 20:00 2700 m 7/8 1/8 - - -
Sa, 25.06. 14:00 9000 m 4/8 0/8 - - -
Sa, 25.06. 8:00 - 0/8 0/8 - - -
Sa, 25.06. 2:00 7800 m 8/8 0/8 - - -
Fr, 24.06. 20:00 1500 m 8/8 2/8 - - -
Fr, 24.06. 14:00 3300 m 8/8 8/8 - - -
Fr, 24.06. 8:00 - 0/8 0/8 - - -
Fr, 24.06. 2:00 - 0/8 0/8 - - -
Ortszeit Bedeckungsgrad in Achtel und Wolkenuntergrenze
So, 26.06. 1:00 8(6000m) 8(6600m) 8(7200m)
So, 26.06. 0:50 8(6000m) 8(6600m) 8(7200m)
So, 26.06. 0:40 8
So, 26.06. 0:30 8(6000m) 8(6900m) 8(10500m)
So, 26.06. 0:20 8(6000m) 8(6900m) 8(10500m)
So, 26.06. 0:10 8
So, 26.06. 0:00 4(6300m) 8(7200m) 8(8700m)
Sa, 25.06. 23:30 2(6300m) 8(7200m) 8(8400m)
Sa, 25.06. 23:00 2(3000m) 7(8100m) 7(9000m)
Sa, 25.06. 22:30 7(3000m) 7(6300m) 7(8700m)
Sa, 25.06. 22:00 2(2100m) 7(2700m) 8(10500m)
Ortszeit Luftdruck NN (hPa) Tendenz (hPa in 3 Std.)
Sa, 25.06. 20:00 1013 + 0,3
Sa, 25.06. 14:00 1012 + 1,0
Sa, 25.06. 8:00 1010 + 0,9
Sa, 25.06. 2:00 1009 + 0,6
Fr, 24.06. 20:00 1007 + 0,6
Fr, 24.06. 14:00 1006 + 0,4
Fr, 24.06. 8:00 1006 - 1,6
Fr, 24.06. 2:00 1009 - 1,3
Ortszeit Luftdruck NN (hPa) Tendenz (hPa in 3 Std.)
So, 26.06. 1:00 1012 - 1,2
So, 26.06. 0:50 1012 keine Meldung
So, 26.06. 0:40 1012 keine Meldung
So, 26.06. 0:30 1012 - 0,7
So, 26.06. 0:20 1012 keine Meldung
So, 26.06. 0:10 1012 keine Meldung
So, 26.06. 0:00 1012 - 0,6
Sa, 25.06. 23:30 1013 - 0,5
Sa, 25.06. 23:00 1013 - 0,2
Sa, 25.06. 22:30 1013 + 0,3
Sa, 25.06. 22:00 1013 + 0,5
Ortszeit Schneehöhe (cm)
Sa, 25.06. 20:00 0
Sa, 25.06. 14:00 0
Sa, 25.06. 8:00 0
Sa, 25.06. 2:00 0
Fr, 24.06. 20:00 0
Fr, 24.06. 14:00 0
Fr, 24.06. 8:00 0
Fr, 24.06. 2:00 0
Ortszeit Schneehöhe (cm)
So, 26.06. 1:00 -
So, 26.06. 0:50 0
So, 26.06. 0:40 0
So, 26.06. 0:30 0
So, 26.06. 0:20 0
So, 26.06. 0:10 0
So, 26.06. 0:00 0
Sa, 25.06. 23:30 0
Sa, 25.06. 23:00 0
Sa, 25.06. 22:30 0
Sa, 25.06. 22:00 0
Link zu dieser Seite / Seite empfehlen

Das Wetter in ...